createdAt,value
2019-05-14T00:01:11.867Z,8.73
2019-05-14T00:02:12.277Z,8.70
2019-05-14T00:04:03.842Z,8.73
2019-05-14T00:05:03.875Z,8.66
2019-05-14T00:06:56.878Z,8.64
2019-05-14T00:07:56.907Z,8.64
2019-05-14T00:09:51.970Z,8.71
2019-05-14T00:10:52.037Z,8.73
2019-05-14T00:12:42.946Z,8.58
2019-05-14T00:13:42.978Z,8.53
2019-05-14T00:15:35.960Z,8.55
2019-05-14T00:16:36.022Z,8.48
2019-05-14T00:18:31.267Z,8.42
2019-05-14T00:19:29.051Z,8.42
2019-05-14T00:21:22.038Z,8.31
2019-05-14T00:22:22.091Z,8.33
2019-05-14T00:24:15.112Z,8.38
2019-05-14T00:25:15.130Z,8.46
2019-05-14T00:27:08.109Z,8.51
2019-05-14T00:28:08.168Z,8.49
2019-05-14T00:30:02.489Z,8.44
2019-05-14T00:31:02.869Z,8.41
2019-05-14T00:32:54.221Z,8.33
2019-05-14T00:33:54.244Z,8.30
2019-05-14T00:35:47.248Z,8.36
2019-05-14T00:36:47.281Z,8.34
2019-05-14T00:38:42.044Z,8.31
2019-05-14T00:39:41.608Z,8.42
2019-05-14T00:41:33.314Z,8.41
2019-05-14T00:42:33.361Z,8.45
2019-05-14T00:44:26.339Z,8.33
2019-05-14T00:45:26.397Z,8.30
2019-05-14T00:47:21.531Z,8.30
2019-05-14T00:48:19.430Z,8.18
2019-05-14T00:50:12.922Z,8.18
2019-05-14T00:51:12.977Z,8.03
2019-05-14T00:53:06.019Z,7.97
2019-05-14T00:54:06.010Z,7.94
2019-05-14T00:55:59.014Z,7.87
2019-05-14T00:57:01.365Z,7.87
2019-05-14T00:58:52.351Z,7.85
2019-05-14T00:59:52.325Z,7.85
2019-05-14T01:01:45.091Z,7.91
2019-05-14T01:02:45.126Z,7.83
2019-05-14T01:04:38.105Z,7.83
2019-05-14T01:05:38.163Z,7.85
2019-05-14T01:07:31.634Z,7.82
2019-05-14T01:08:31.942Z,7.85
2019-05-14T01:10:24.172Z,7.90
2019-05-14T01:11:24.233Z,7.88
2019-05-14T01:13:17.225Z,7.94
2019-05-14T01:14:17.271Z,7.82
2019-05-14T01:16:11.984Z,7.85
2019-05-14T01:17:11.266Z,7.77
2019-05-14T01:19:03.301Z,7.83
2019-05-14T01:20:03.371Z,7.75
2019-05-14T01:21:56.351Z,7.61
2019-05-14T01:22:56.381Z,7.70
2019-05-14T01:24:49.371Z,7.69
2019-05-14T01:25:51.436Z,7.66
2019-05-14T01:27:42.420Z,7.66
2019-05-14T01:28:42.453Z,7.61
2019-05-14T01:30:35.430Z,7.67
2019-05-14T01:31:35.491Z,7.76
2019-05-14T01:33:28.479Z,7.72
2019-05-14T01:34:28.523Z,7.77
2019-05-14T01:36:21.682Z,7.76
2019-05-14T01:37:21.964Z,7.69
2019-05-14T01:39:14.570Z,7.70
2019-05-14T01:40:14.598Z,7.72
2019-05-14T01:42:07.579Z,7.69
2019-05-14T01:43:07.636Z,7.69
2019-05-14T01:45:02.638Z,7.63
2019-05-14T01:46:01.951Z,7.51
2019-05-14T01:47:53.680Z,7.50
2019-05-14T01:48:53.710Z,7.58
2019-05-14T01:50:48.218Z,7.50
2019-05-14T01:51:48.242Z,7.54
2019-05-14T01:53:41.632Z,7.57
2019-05-14T01:54:42.716Z,7.51
2019-05-14T01:56:34.272Z,7.50
2019-05-14T01:57:34.319Z,7.38
2019-05-14T01:59:27.319Z,7.28
2019-05-14T02:00:27.352Z,7.32
2019-05-14T02:02:22.118Z,7.24
2019-05-14T02:03:21.510Z,7.18
2019-05-14T02:05:13.399Z,7.17
2019-05-14T02:06:13.430Z,7.14
2019-05-14T02:08:06.434Z,7.17
2019-05-14T02:09:06.465Z,7.15
2019-05-14T02:11:01.537Z,6.99
2019-05-14T02:11:59.498Z,6.99
2019-05-14T02:13:52.479Z,7.03
2019-05-14T02:14:52.536Z,7.02
2019-05-14T02:16:45.540Z,7.05
2019-05-14T02:17:45.566Z,7.07
2019-05-14T02:19:38.580Z,7.20
2019-05-14T02:20:38.610Z,6.99
2019-05-14T02:22:32.067Z,7.03
2019-05-14T02:23:32.206Z,6.97
2019-05-14T02:25:24.631Z,7.00
2019-05-14T02:26:24.688Z,6.96
2019-05-14T02:28:17.696Z,6.99
2019-05-14T02:29:17.724Z,7.00
2019-05-14T02:31:10.697Z,6.97
2019-05-14T02:32:11.078Z,6.95
2019-05-14T02:34:03.760Z,6.92
2019-05-14T02:35:03.799Z,6.92
2019-05-14T02:37:00.180Z,6.85
2019-05-14T02:37:59.600Z,6.92
2019-05-14T02:39:50.376Z,6.88
2019-05-14T02:40:49.866Z,6.89
2019-05-14T02:42:42.868Z,6.84
2019-05-14T02:43:42.897Z,6.87
2019-05-14T02:45:40.934Z,6.89
2019-05-14T02:46:35.931Z,6.89
2019-05-14T02:48:29.485Z,6.82
2019-05-14T02:49:30.111Z,6.84
2019-05-14T02:51:21.977Z,6.92
2019-05-14T02:52:22.007Z,6.88
2019-05-14T02:54:14.986Z,6.85
2019-05-14T02:55:15.046Z,6.84
2019-05-14T02:57:10.280Z,6.84
2019-05-14T02:58:10.031Z,6.92
2019-05-14T03:00:01.055Z,6.87
2019-05-14T03:01:01.114Z,6.95
2019-05-14T03:02:54.111Z,6.97
2019-05-14T03:03:54.144Z,6.89
2019-05-14T03:05:49.545Z,6.95
2019-05-14T03:06:49.635Z,7.02
2019-05-14T03:08:40.194Z,7.03
2019-05-14T03:09:40.574Z,7.00
2019-05-14T03:11:33.184Z,7.05
2019-05-14T03:12:33.250Z,7.03
2019-05-14T03:14:26.273Z,7.05
2019-05-14T03:15:29.034Z,7.03
2019-05-14T03:17:20.014Z,7.00
2019-05-14T03:18:20.002Z,7.05
2019-05-14T03:20:12.292Z,6.99
2019-05-14T03:21:12.349Z,7.05
2019-05-14T03:23:09.912Z,7.03
2019-05-14T03:24:05.383Z,7.07
2019-05-14T03:26:00.371Z,7.00
2019-05-14T03:26:58.857Z,7.07
2019-05-14T03:28:51.389Z,7.05
2019-05-14T03:29:51.457Z,7.02
2019-05-14T03:31:44.457Z,6.99
2019-05-14T03:32:44.497Z,6.92
2019-05-14T03:34:42.789Z,6.93
2019-05-14T03:35:44.480Z,6.92
2019-05-14T03:37:31.151Z,6.85
2019-05-14T03:38:30.551Z,6.89
2019-05-14T03:40:23.531Z,6.87
2019-05-14T03:41:23.585Z,6.84
2019-05-14T03:43:19.644Z,6.84
2019-05-14T03:44:19.730Z,6.84
2019-05-14T03:46:09.853Z,6.85
2019-05-14T03:47:10.672Z,6.87
2019-05-14T03:49:02.645Z,6.92
2019-05-14T03:50:02.701Z,6.88
2019-05-14T03:51:55.701Z,6.93
2019-05-14T03:52:55.728Z,6.92
2019-05-14T03:54:49.692Z,6.89
2019-05-14T03:55:50.509Z,6.92
2019-05-14T03:57:41.777Z,6.95
2019-05-14T03:58:41.803Z,7.02
2019-05-14T04:00:34.778Z,7.02
2019-05-14T04:01:34.844Z,7.02
2019-05-14T04:03:29.463Z,7.02
2019-05-14T04:04:29.894Z,7.03
2019-05-14T04:06:20.854Z,7.00
2019-05-14T04:07:20.916Z,7.02
2019-05-14T04:09:13.908Z,6.99
2019-05-14T04:10:13.943Z,6.96
2019-05-14T04:12:09.779Z,7.14
2019-05-14T04:13:09.040Z,7.17
2019-05-14T04:14:59.978Z,7.14
2019-05-14T04:16:00.349Z,7.17
2019-05-14T04:17:52.989Z,7.25
2019-05-14T04:18:53.041Z,7.29
2019-05-14T04:20:46.046Z,7.24
2019-05-14T04:21:48.868Z,7.28
2019-05-14T04:23:39.853Z,7.28
2019-05-14T04:24:41.468Z,7.28
2019-05-14T04:26:51.929Z,7.35
2019-05-14T04:27:32.154Z,7.32
2019-05-14T04:29:25.157Z,7.32
2019-05-14T04:30:25.189Z,7.42
2019-05-14T04:32:20.030Z,7.45
2019-05-14T04:33:18.917Z,7.45
2019-05-14T04:35:11.230Z,7.50
2019-05-14T04:36:11.254Z,7.43
2019-05-14T04:38:04.238Z,7.45
2019-05-14T04:39:04.292Z,7.47
2019-05-14T04:40:59.836Z,7.50
2019-05-14T04:42:00.000Z,7.50
2019-05-14T04:43:50.600Z,7.54
2019-05-14T04:44:50.882Z,7.61
2019-05-14T04:46:43.385Z,7.66
2019-05-14T04:47:43.403Z,7.67
2019-05-14T04:49:39.545Z,7.76
2019-05-14T04:50:40.212Z,7.70
2019-05-14T04:52:29.513Z,7.80
2019-05-14T04:53:30.811Z,7.88
2019-05-14T04:55:22.450Z,8.00
2019-05-14T04:56:22.508Z,8.13
2019-05-14T04:58:15.522Z,8.09
2019-05-14T04:59:15.563Z,8.12
2019-05-14T05:01:09.794Z,8.12
2019-05-14T05:02:09.705Z,8.03
2019-05-14T05:04:01.588Z,8.12
2019-05-14T05:05:01.634Z,8.10
2019-05-14T05:06:54.611Z,8.13
2019-05-14T05:07:54.668Z,8.10
2019-05-14T05:09:50.147Z,8.16
2019-05-14T05:10:49.486Z,8.18
2019-05-14T05:12:40.679Z,8.19
2019-05-14T05:13:40.735Z,8.24
2019-05-14T05:15:33.735Z,8.24
2019-05-14T05:16:33.772Z,8.27
2019-05-14T05:18:29.374Z,8.26
2019-05-14T05:19:29.005Z,8.30
2019-05-14T05:21:20.327Z,8.23
2019-05-14T05:22:20.377Z,8.41
2019-05-14T05:24:13.330Z,8.31
2019-05-14T05:25:13.386Z,8.41
2019-05-14T05:27:08.507Z,8.36
2019-05-14T05:28:08.681Z,8.42
2019-05-14T05:29:59.429Z,8.41
2019-05-14T05:30:59.459Z,8.44
2019-05-14T05:32:52.438Z,8.45
2019-05-14T05:33:52.493Z,8.52
2019-05-14T05:35:45.496Z,8.42
2019-05-14T05:36:45.532Z,8.52
2019-05-14T05:38:39.401Z,8.45
2019-05-14T05:39:38.851Z,8.38
2019-05-14T05:41:31.571Z,8.51
2019-05-14T05:42:31.600Z,8.56
2019-05-14T05:44:24.578Z,8.60
2019-05-14T05:45:24.639Z,8.60
2019-05-14T05:47:18.290Z,8.71
2019-05-14T05:48:18.768Z,8.82
2019-05-14T05:50:10.658Z,8.95
2019-05-14T05:51:10.712Z,8.89
2019-05-14T05:53:03.718Z,9.03
2019-05-14T05:54:03.748Z,9.13
2019-05-14T05:55:59.017Z,9.26
2019-05-14T05:56:58.182Z,9.23
2019-05-14T05:58:49.760Z,9.40
2019-05-14T05:59:49.823Z,9.48
2019-05-14T06:01:46.368Z,9.62
2019-05-14T06:02:42.857Z,9.80
2019-05-14T06:04:35.838Z,10.13
2019-05-14T06:05:38.209Z,10.33
2019-05-14T06:07:29.017Z,10.81
2019-05-14T06:08:28.930Z,10.90
2019-05-14T06:10:21.920Z,12.00
2019-05-14T06:11:21.973Z,12.95
2019-05-14T06:13:14.971Z,15.02
2019-05-14T06:14:15.018Z,15.73
2019-05-14T06:16:09.487Z,15.97
2019-05-14T06:17:08.586Z,16.56
2019-05-14T06:19:01.028Z,16.94
2019-05-14T06:20:01.087Z,16.91
2019-05-14T06:21:54.599Z,16.39
2019-05-14T06:22:54.635Z,16.97
2019-05-14T06:24:48.568Z,17.79
2019-05-14T06:25:49.299Z,18.19
2019-05-14T06:27:40.681Z,18.83
2019-05-14T06:28:41.255Z,18.96
2019-05-14T06:30:33.725Z,19.55
2019-05-14T06:31:33.786Z,19.37
2019-05-14T06:33:28.702Z,19.44
2019-05-14T06:34:29.026Z,20.04
2019-05-14T06:36:19.933Z,21.07
2019-05-14T06:37:19.899Z,21.02
2019-05-14T06:39:12.907Z,21.32
2019-05-14T06:40:12.954Z,21.54
2019-05-14T06:42:08.635Z,21.29
2019-05-14T06:43:06.016Z,21.35
2019-05-14T06:44:59.015Z,20.62
2019-05-14T06:45:59.084Z,19.79
2019-05-14T06:47:52.103Z,19.91
2019-05-14T06:48:52.150Z,20.62
2019-05-14T06:50:45.145Z,21.11
2019-05-14T06:51:45.214Z,21.52
2019-05-14T06:53:39.184Z,22.43
2019-05-14T06:54:38.815Z,22.38
2019-05-14T06:56:31.281Z,21.37
2019-05-14T06:57:31.347Z,20.52
2019-05-14T06:59:24.359Z,20.84
2019-05-14T07:00:24.413Z,20.34
2019-05-14T07:02:19.361Z,19.89
2019-05-14T07:03:18.046Z,19.64
2019-05-14T07:05:10.486Z,20.31
2019-05-14T07:06:10.551Z,20.78
2019-05-14T07:08:03.567Z,21.54
2019-05-14T07:09:03.619Z,21.20
2019-05-14T07:10:59.028Z,21.15
2019-05-14T07:11:58.462Z,21.11
2019-05-14T07:13:49.709Z,20.29
2019-05-14T07:14:49.758Z,20.66
2019-05-14T07:16:42.797Z,21.70
2019-05-14T07:17:42.840Z,22.15
2019-05-14T07:19:38.296Z,23.37
2019-05-14T07:20:35.910Z,24.33
2019-05-14T07:22:28.929Z,24.93
2019-05-14T07:23:29.134Z,25.13
2019-05-14T07:25:21.985Z,25.55
2019-05-14T07:26:22.058Z,26.10
2019-05-14T07:28:15.084Z,26.22
2019-05-14T07:29:15.125Z,26.70
2019-05-14T07:31:09.750Z,26.07
2019-05-14T07:32:08.976Z,25.68
2019-05-14T07:34:01.208Z,26.77
2019-05-14T07:35:01.283Z,27.11
2019-05-14T07:36:54.312Z,26.84
2019-05-14T07:37:54.359Z,27.40
2019-05-14T07:39:48.756Z,26.03
2019-05-14T07:40:49.440Z,24.77
2019-05-14T07:42:40.472Z,24.03
2019-05-14T07:43:40.521Z,24.76
2019-05-14T07:45:33.631Z,25.38
2019-05-14T07:46:33.602Z,25.66
2019-05-14T07:48:28.743Z,26.43
2019-05-14T07:49:28.879Z,25.63
2019-05-14T07:51:19.725Z,26.55
2019-05-14T07:52:19.958Z,27.11
2019-05-14T07:54:12.798Z,28.08
2019-05-14T07:55:12.855Z,28.78
2019-05-14T07:57:08.449Z,27.48
2019-05-14T07:58:08.191Z,27.29
2019-05-14T07:59:59.042Z,27.40
2019-05-14T08:00:59.045Z,28.00
2019-05-14T08:02:52.057Z,28.00
2019-05-14T08:03:52.132Z,27.96
2019-05-14T08:05:45.179Z,26.43
2019-05-14T08:06:45.234Z,26.59
2019-05-14T08:08:38.749Z,27.10
2019-05-14T08:09:38.963Z,27.05
2019-05-14T08:11:31.334Z,27.85
2019-05-14T08:12:31.409Z,27.22
2019-05-14T08:14:24.438Z,27.35
2019-05-14T08:15:24.500Z,26.88
2019-05-14T08:17:19.038Z,27.36
2019-05-14T08:18:18.848Z,27.86
2019-05-14T08:20:10.622Z,27.36
2019-05-14T08:21:10.681Z,28.10
2019-05-14T08:23:03.713Z,27.37
2019-05-14T08:24:03.769Z,26.70
2019-05-14T08:25:58.714Z,27.37
2019-05-14T08:26:57.930Z,27.40
2019-05-14T08:28:49.900Z,25.13
2019-05-14T08:29:49.958Z,25.99
2019-05-14T08:31:42.988Z,24.35
2019-05-14T08:32:43.047Z,22.93
2019-05-14T08:34:38.741Z,23.99
2019-05-14T08:35:36.644Z,24.60
2019-05-14T08:37:29.663Z,26.60
2019-05-14T08:38:29.743Z,26.99
2019-05-14T08:40:22.771Z,26.62
2019-05-14T08:41:22.829Z,27.87
2019-05-14T08:43:18.294Z,26.25
2019-05-14T08:44:15.922Z,24.35
2019-05-14T08:46:08.963Z,22.81
2019-05-14T08:47:09.755Z,22.11
2019-05-14T08:49:02.056Z,21.29
2019-05-14T08:50:02.100Z,23.44
2019-05-14T08:51:55.113Z,22.78
2019-05-14T08:52:55.189Z,22.11
2019-05-14T08:54:50.513Z,20.95
2019-05-14T08:55:48.907Z,20.28
2019-05-14T08:57:41.386Z,20.43
2019-05-14T08:58:41.355Z,20.37
2019-05-14T09:00:34.382Z,19.73
2019-05-14T09:01:34.432Z,19.44
2019-05-14T09:03:28.850Z,19.77
2019-05-14T09:04:30.310Z,19.47
2019-05-14T09:06:20.513Z,19.56
2019-05-14T09:07:20.582Z,19.66
2019-05-14T09:09:13.604Z,19.39
2019-05-14T09:10:13.653Z,19.11
2019-05-14T09:12:12.181Z,21.02
2019-05-14T09:13:08.623Z,21.70
2019-05-14T09:14:59.745Z,23.92
2019-05-14T09:15:59.794Z,24.10
2019-05-14T09:17:52.797Z,23.74
2019-05-14T09:18:52.866Z,24.01
2019-05-14T09:20:45.891Z,23.25
2019-05-14T09:21:45.945Z,22.60
2019-05-14T09:23:39.442Z,21.36
2019-05-14T09:24:39.058Z,20.95
2019-05-14T09:26:32.041Z,20.22
2019-05-14T09:27:32.092Z,19.47
2019-05-14T09:29:26.064Z,19.37
2019-05-14T09:30:25.232Z,18.73
2019-05-14T09:32:19.310Z,18.63
2019-05-14T09:33:19.058Z,18.88
2019-05-14T09:35:11.772Z,19.07
2019-05-14T09:36:19.602Z,19.44
2019-05-14T09:38:04.801Z,18.60
2019-05-14T09:39:04.885Z,18.29
2019-05-14T09:41:08.031Z,17.85
2019-05-14T09:41:58.199Z,17.52
2019-05-14T09:43:50.925Z,17.19
2019-05-14T09:44:50.990Z,16.99
2019-05-14T09:46:44.003Z,17.27
2019-05-14T09:47:47.527Z,17.33
2019-05-14T09:49:38.833Z,17.36
2019-05-14T09:50:38.351Z,17.19
2019-05-14T09:52:30.122Z,17.26
2019-05-14T09:53:30.167Z,17.06
2019-05-14T09:55:23.167Z,17.06
2019-05-14T09:56:23.225Z,17.02
2019-05-14T09:58:19.595Z,17.01
2019-05-14T09:59:18.404Z,17.29
2019-05-14T10:01:09.300Z,17.16
2019-05-14T10:02:09.360Z,16.99
2019-05-14T10:04:02.358Z,17.38
2019-05-14T10:05:02.407Z,17.74
2019-05-14T10:06:55.405Z,17.94
2019-05-14T10:07:55.457Z,18.08
2019-05-14T10:09:49.181Z,18.65
2019-05-14T10:10:48.960Z,18.66
2019-05-14T10:12:52.412Z,18.53
2019-05-14T10:13:41.568Z,18.55
2019-05-14T10:15:34.567Z,18.41
2019-05-14T10:16:34.628Z,18.22
2019-05-14T10:18:28.496Z,17.90
2019-05-14T10:19:29.664Z,17.71
2019-05-14T10:21:20.693Z,17.64
2019-05-14T10:22:20.742Z,17.65
2019-05-14T10:24:13.731Z,17.90
2019-05-14T10:25:13.795Z,17.90
2019-05-14T10:27:08.896Z,18.05
2019-05-14T10:28:08.617Z,17.65
2019-05-14T10:29:59.859Z,17.63
2019-05-14T10:31:03.565Z,17.57
2019-05-14T10:32:52.924Z,17.67
2019-05-14T10:33:52.965Z,17.76
2019-05-14T10:35:48.173Z,17.72
2019-05-14T10:36:46.021Z,17.92
2019-05-14T10:38:39.030Z,18.01
2019-05-14T10:39:39.381Z,18.11
2019-05-14T10:41:32.098Z,17.97
2019-05-14T10:42:32.128Z,17.94
2019-05-14T10:44:25.122Z,17.90
2019-05-14T10:45:25.183Z,17.94
2019-05-14T10:47:18.843Z,17.97
2019-05-14T10:48:18.648Z,18.11
2019-05-14T10:50:13.740Z,17.79
2019-05-14T10:51:11.295Z,17.83
2019-05-14T10:53:04.296Z,18.08
2019-05-14T10:54:18.864Z,17.97
2019-05-14T10:55:58.290Z,16.91
2019-05-14T10:56:59.230Z,17.02
2019-05-14T10:58:50.405Z,17.04
2019-05-14T10:59:50.466Z,17.04
2019-05-14T11:01:43.477Z,17.49
2019-05-14T11:02:43.520Z,17.54
2019-05-14T11:04:38.775Z,17.49
2019-05-14T11:05:41.283Z,17.67
2019-05-14T11:07:29.589Z,17.72
2019-05-14T11:08:29.842Z,17.52
2019-05-14T11:10:22.645Z,17.89
2019-05-14T11:11:22.687Z,17.98
2019-05-14T11:13:15.678Z,17.95
2019-05-14T11:14:19.003Z,17.94
2019-05-14T11:16:08.837Z,17.64
2019-05-14T11:17:11.843Z,17.78
2019-05-14T11:19:01.785Z,17.63
2019-05-14T11:20:01.857Z,17.52
2019-05-14T11:21:54.859Z,17.60
2019-05-14T11:22:54.906Z,17.64
2019-05-14T11:24:49.156Z,17.48
2019-05-14T11:25:48.772Z,17.52
2019-05-14T11:27:40.970Z,17.51
2019-05-14T11:28:41.010Z,17.54
2019-05-14T11:30:34.019Z,17.54
2019-05-14T11:31:34.446Z,17.59
2019-05-14T11:33:29.527Z,17.46
2019-05-14T11:34:28.721Z,17.34
2019-05-14T11:36:20.105Z,17.29
2019-05-14T11:37:20.166Z,17.29
2019-05-14T11:39:13.175Z,17.39
2019-05-14T11:40:13.232Z,17.19
2019-05-14T11:42:08.529Z,17.15
2019-05-14T11:43:08.371Z,17.27
2019-05-14T11:44:59.279Z,17.45
2019-05-14T11:45:59.562Z,17.60
2019-05-14T11:47:52.310Z,17.67
2019-05-14T11:48:52.374Z,17.71
2019-05-14T11:50:45.379Z,17.87
2019-05-14T11:52:00.969Z,17.89
2019-05-14T11:53:38.693Z,17.82
2019-05-14T11:54:40.997Z,17.74
2019-05-14T11:56:31.463Z,17.56
2019-05-14T11:57:31.530Z,17.39
2019-05-14T11:59:24.536Z,17.23
2019-05-14T12:00:26.057Z,17.34
2019-05-14T12:02:18.942Z,17.56
2019-05-14T12:03:19.752Z,17.30
2019-05-14T12:05:10.648Z,17.06
2019-05-14T12:06:10.684Z,17.14
2019-05-14T12:08:03.669Z,17.22
2019-05-14T12:09:03.737Z,17.27
2019-05-14T12:10:59.011Z,17.44
2019-05-14T12:11:58.681Z,17.52
2019-05-14T12:13:49.785Z,17.64
2019-05-14T12:14:49.858Z,17.67
2019-05-14T12:16:42.873Z,17.64
2019-05-14T12:17:42.910Z,17.64
2019-05-14T12:19:35.899Z,17.85
2019-05-14T12:20:39.337Z,17.76
2019-05-14T12:22:28.969Z,17.78
2019-05-14T12:23:29.801Z,17.74
2019-05-14T12:25:22.013Z,17.82
2019-05-14T12:26:22.089Z,17.80
2019-05-14T12:28:15.094Z,17.85
2019-05-14T12:29:15.137Z,17.85
2019-05-14T12:31:09.300Z,17.83
2019-05-14T12:32:12.623Z,17.87
2019-05-14T12:34:01.185Z,17.82
2019-05-14T12:35:01.247Z,17.82
2019-05-14T12:36:54.255Z,17.90
2019-05-14T12:37:54.299Z,17.92
2019-05-14T12:39:47.352Z,18.11
2019-05-14T12:40:47.352Z,18.03
2019-05-14T12:42:40.371Z,17.95
2019-05-14T12:43:43.684Z,18.13
2019-05-14T12:45:33.397Z,18.04
2019-05-14T12:46:33.460Z,18.11
2019-05-14T12:48:29.522Z,18.23
2019-05-14T12:49:26.514Z,18.04
2019-05-14T12:51:19.505Z,18.00
2019-05-14T12:52:25.714Z,17.89
2019-05-14T12:54:12.586Z,17.65
2019-05-14T12:55:12.620Z,17.60
2019-05-14T12:57:05.611Z,17.65
2019-05-14T12:58:08.117Z,17.74
2019-05-14T12:59:58.678Z,17.83
2019-05-14T13:00:59.541Z,17.90
2019-05-14T13:02:51.730Z,18.04
2019-05-14T13:03:51.775Z,18.08
2019-05-14T13:05:44.758Z,18.20
2019-05-14T13:06:44.820Z,17.97
2019-05-14T13:08:38.710Z,17.51
2019-05-14T13:09:38.564Z,17.44
2019-05-14T13:11:30.870Z,17.14
2019-05-14T13:12:30.921Z,17.34
2019-05-14T13:14:23.934Z,17.71
2019-05-14T13:15:23.971Z,17.89
2019-05-14T13:17:18.693Z,18.03
2019-05-14T13:18:19.365Z,17.98
2019-05-14T13:20:13.720Z,17.87
2019-05-14T13:21:10.072Z,17.78
2019-05-14T13:23:03.059Z,17.64
2019-05-14T13:24:03.123Z,17.57
2019-05-14T13:25:58.472Z,17.65
2019-05-14T13:26:58.625Z,17.65
2019-05-14T13:28:50.924Z,17.71
2019-05-14T13:29:49.435Z,17.79
2019-05-14T13:31:42.235Z,17.80
2019-05-14T13:32:42.287Z,17.80
2019-05-14T13:34:35.294Z,17.90
2019-05-14T13:35:35.325Z,17.78
2019-05-14T13:37:28.782Z,17.98
2019-05-14T13:38:28.393Z,17.82
2019-05-14T13:40:21.573Z,17.80
2019-05-14T13:41:21.439Z,17.71
2019-05-14T13:43:14.687Z,17.63
2019-05-14T13:44:23.998Z,17.65
2019-05-14T13:46:10.493Z,17.92
2019-05-14T13:47:09.210Z,17.86
2019-05-14T13:49:00.534Z,17.86
2019-05-14T13:50:00.593Z,18.13
2019-05-14T13:51:53.624Z,18.01
2019-05-14T13:53:07.584Z,17.94
2019-05-14T13:54:48.146Z,17.92
2019-05-14T13:55:57.068Z,17.72
2019-05-14T13:57:41.232Z,17.68
2019-05-14T13:58:41.257Z,17.68
2019-05-14T14:00:34.265Z,17.63
2019-05-14T14:01:34.304Z,17.59
2019-05-14T14:03:29.179Z,17.67
2019-05-14T14:04:27.356Z,17.67
2019-05-14T14:06:20.900Z,17.72
2019-05-14T14:07:20.425Z,17.65
2019-05-14T14:09:13.441Z,17.89
2019-05-14T14:10:13.472Z,17.90
2019-05-14T14:12:08.237Z,18.04
2019-05-14T14:13:10.754Z,18.18
2019-05-14T14:14:59.521Z,18.18
2019-05-14T14:15:59.569Z,18.16
2019-05-14T14:17:52.592Z,18.41
2019-05-14T14:18:52.624Z,18.34
2019-05-14T14:20:45.609Z,18.05
2019-05-14T14:21:45.675Z,17.97
2019-05-14T14:23:39.476Z,17.86
2019-05-14T14:24:38.821Z,17.87
2019-05-14T14:26:31.764Z,17.82
2019-05-14T14:27:31.843Z,17.87
2019-05-14T14:29:24.786Z,17.98
2019-05-14T14:30:24.831Z,18.01
2019-05-14T14:32:18.833Z,18.26
2019-05-14T14:33:18.529Z,18.37
2019-05-14T14:35:10.902Z,18.33
2019-05-14T14:36:10.948Z,18.28
2019-05-14T14:38:03.965Z,18.19
2019-05-14T14:39:03.996Z,18.19
2019-05-14T14:40:58.227Z,17.86
2019-05-14T14:41:58.500Z,17.56
2019-05-14T14:43:54.003Z,17.56
2019-05-14T14:44:50.099Z,17.68
2019-05-14T14:46:43.086Z,17.86
2019-05-14T14:47:43.149Z,17.82
2019-05-14T14:49:36.173Z,17.86
2019-05-14T14:50:38.784Z,18.00
2019-05-14T14:52:29.350Z,18.31
2019-05-14T14:53:42.800Z,18.35
2019-05-14T14:55:22.261Z,18.41
2019-05-14T14:56:22.298Z,18.41
2019-05-14T14:58:15.291Z,18.43
2019-05-14T14:59:15.349Z,18.35
2019-05-14T15:01:08.953Z,18.08
2019-05-14T15:02:10.246Z,18.13
2019-05-14T15:04:01.399Z,17.68
2019-05-14T15:05:01.463Z,17.57
2019-05-14T15:06:54.491Z,17.64
2019-05-14T15:07:54.515Z,17.80
2019-05-14T15:09:48.710Z,17.97
2019-05-14T15:10:48.669Z,17.97
2019-05-14T15:12:40.669Z,17.97
2019-05-14T15:13:40.622Z,17.94
2019-05-14T15:15:33.614Z,17.92
2019-05-14T15:16:33.673Z,17.82
2019-05-14T15:18:28.829Z,17.87
2019-05-14T15:19:29.540Z,17.94
2019-05-14T15:21:19.714Z,17.95
2019-05-14T15:22:20.924Z,18.13
2019-05-14T15:24:15.585Z,17.95
2019-05-14T15:25:12.827Z,17.92
2019-05-14T15:27:11.857Z,17.97
2019-05-14T15:28:05.883Z,17.94
2019-05-14T15:29:59.425Z,17.86
2019-05-14T15:30:59.658Z,17.83
2019-05-14T15:32:51.958Z,17.97
2019-05-14T15:33:51.984Z,17.89
2019-05-14T15:35:44.973Z,17.74
2019-05-14T15:36:45.032Z,17.74
2019-05-14T15:38:39.753Z,17.76
2019-05-14T15:39:39.119Z,17.82
2019-05-14T15:41:31.071Z,17.85
2019-05-14T15:42:31.133Z,17.89
2019-05-14T15:44:24.147Z,17.97
2019-05-14T15:45:24.182Z,17.98
2019-05-14T15:47:18.982Z,17.95
2019-05-14T15:48:19.976Z,17.94
2019-05-14T15:50:10.246Z,17.98
2019-05-14T15:51:11.419Z,18.13
2019-05-14T15:53:03.270Z,18.16
2019-05-14T15:54:21.116Z,18.20
2019-05-14T15:55:56.345Z,18.08
2019-05-14T15:56:58.623Z,18.11
2019-05-14T15:58:49.409Z,18.05
2019-05-14T15:59:49.444Z,18.01
2019-05-14T16:01:42.453Z,18.01
2019-05-14T16:02:42.507Z,18.00
2019-05-14T16:04:38.543Z,17.83
2019-05-14T16:05:39.038Z,17.76
2019-05-14T16:07:29.333Z,17.57
2019-05-14T16:08:29.608Z,17.56
2019-05-14T16:10:21.958Z,17.36
2019-05-14T16:11:21.653Z,17.39
2019-05-14T16:13:14.640Z,17.44
2019-05-14T16:14:14.703Z,17.31
2019-05-14T16:16:10.225Z,17.34
2019-05-14T16:17:11.299Z,17.56
2019-05-14T16:19:00.781Z,17.57
2019-05-14T16:20:00.807Z,17.57
2019-05-14T16:21:53.813Z,17.76
2019-05-14T16:22:53.847Z,17.78
2019-05-14T16:24:56.402Z,17.90
2019-05-14T16:25:48.317Z,17.97
2019-05-14T16:27:40.066Z,17.74
2019-05-14T16:28:39.976Z,17.64
2019-05-14T16:30:32.966Z,17.54
2019-05-14T16:31:33.000Z,17.60
2019-05-14T16:33:28.806Z,17.64
2019-05-14T16:34:26.046Z,17.57
2019-05-14T16:36:19.054Z,17.42
2019-05-14T16:37:19.092Z,17.30
2019-05-14T16:39:12.090Z,17.22
2019-05-14T16:40:12.192Z,17.11
2019-05-14T16:42:05.161Z,16.94
2019-05-14T16:43:05.201Z,17.02
2019-05-14T16:44:58.192Z,16.94
2019-05-14T16:45:59.743Z,16.93
2019-05-14T16:47:51.276Z,17.06
2019-05-14T16:48:51.304Z,17.08
2019-05-14T16:50:44.290Z,16.99
2019-05-14T16:51:44.354Z,16.87
2019-05-14T16:53:38.017Z,16.91
2019-05-14T16:54:39.499Z,16.83
2019-05-14T16:56:30.415Z,16.76
2019-05-14T16:57:30.458Z,16.83
2019-05-14T16:59:23.469Z,16.81
2019-05-14T17:00:23.506Z,16.86
2019-05-14T17:02:19.087Z,16.86
2019-05-14T17:03:19.109Z,16.86
2019-05-14T17:05:09.542Z,17.05
2019-05-14T17:06:09.603Z,16.93
2019-05-14T17:08:02.631Z,17.01
2019-05-14T17:09:02.652Z,16.91
2019-05-14T17:10:55.665Z,16.84
2019-05-14T17:11:55.697Z,16.76
2019-05-14T17:13:49.089Z,16.75
2019-05-14T17:14:48.750Z,16.78
2019-05-14T17:16:41.756Z,16.86
2019-05-14T17:17:41.798Z,16.75
2019-05-14T17:19:34.809Z,16.83
2019-05-14T17:20:34.844Z,16.74
2019-05-14T17:22:29.481Z,16.78
2019-05-14T17:23:28.406Z,16.74
2019-05-14T17:25:27.137Z,16.87
2019-05-14T17:26:20.942Z,16.87
2019-05-14T17:28:13.950Z,16.84
2019-05-14T17:29:13.998Z,16.71
2019-05-14T17:31:07.009Z,16.69
2019-05-14T17:32:07.064Z,16.81
2019-05-14T17:34:00.041Z,16.66
2019-05-14T17:35:00.105Z,16.64
2019-05-14T17:36:53.122Z,16.64
2019-05-14T17:37:53.156Z,16.60
2019-05-14T17:39:46.142Z,16.66
2019-05-14T17:40:48.677Z,16.58
2019-05-14T17:42:39.724Z,16.51
2019-05-14T17:43:39.643Z,16.46
2019-05-14T17:45:32.246Z,16.43
2019-05-14T17:46:32.307Z,16.36
2019-05-14T17:48:25.327Z,16.41
2019-05-14T17:49:25.357Z,16.33
2019-05-14T17:51:18.359Z,16.24
2019-05-14T17:52:21.829Z,16.20
2019-05-14T17:54:11.418Z,16.26
2019-05-14T17:55:12.383Z,16.20
2019-05-14T17:57:04.436Z,16.24
2019-05-14T17:58:04.512Z,16.28
2019-05-14T17:59:58.370Z,16.23
2019-05-14T18:00:58.219Z,16.12
2019-05-14T18:02:50.544Z,16.17
2019-05-14T18:03:50.618Z,16.13
2019-05-14T18:05:43.617Z,16.04
2019-05-14T18:06:43.654Z,16.02
2019-05-14T18:08:36.640Z,15.94
2019-05-14T18:09:36.697Z,15.98
2019-05-14T18:11:29.716Z,15.98
2019-05-14T18:12:30.519Z,15.90
2019-05-14T18:14:22.735Z,15.84
2019-05-14T18:15:22.794Z,15.95
2019-05-14T18:17:18.630Z,15.88
2019-05-14T18:18:18.340Z,15.92
2019-05-14T18:20:08.855Z,15.76
2019-05-14T18:21:09.504Z,15.65
2019-05-14T18:23:01.910Z,15.68
2019-05-14T18:24:01.944Z,15.72
2019-05-14T18:26:04.815Z,15.70
2019-05-14T18:26:54.990Z,15.59
2019-05-14T18:28:48.007Z,15.65
2019-05-14T18:29:48.797Z,15.55
2019-05-14T18:31:44.329Z,15.55
2019-05-14T18:32:41.080Z,15.49
2019-05-14T18:34:34.102Z,15.39
2019-05-14T18:35:34.136Z,15.46
2019-05-14T18:37:28.967Z,15.29
2019-05-14T18:38:29.060Z,15.35
2019-05-14T18:40:20.206Z,15.36
2019-05-14T18:41:20.237Z,15.24
2019-05-14T18:43:13.254Z,15.24
2019-05-14T18:44:13.287Z,15.21
2019-05-14T18:46:08.455Z,15.15